Gallup, NM

2:18 PM MDT en Agosto 30, 2014 (GMT -0600)
Gallup Municipal | Change Station
CLOSE
Current Station
Aeropuerto
Location: Gallup,
Altura: 6470 ft
Estaciones meteorológicas cercanas

Alt 6470 ft 35.51 °N, 108.79 °W | Updated 25 minutes ago

Clear
Despejado
86 ° F
Sensación térmica 86 ° F
N
14
Viento Variable Viento desde ONO

Hoy
Alta -- | Baja -- ° F
--% Posibilidad de precipitaciones
Ayer
Alta -- | Baja -- ° F
Precip. -- pul
6:45 AM 7:44 PM
Creciente, 24% visible
Presión 29.72 pul
Visibilidad 10.0 Millas
Nubes Despejado
Punto de rocío 31 ° F
Humedad 14%
Precipitaciones 0.00 pul
Espesor de la nieve No disponible.
UV 11 de una escala de 12
Polen 8.90 de una escala de 12
Calidad del aire No disponible.
Flu Activity No disponible.
METAR KGUP 301953Z AUTO 29012KT 10SM CLR 30/M01 A3019 RMK AO2 SLP062 T03001006

More Conditions Fewer Conditions

Presión 29.72 pul
Visibilidad 10.0 Millas
Nubes Despejado
Punto de rocío 31 ° F
Humedad 14%
Precipitaciones 0.00 pul
Espesor de la nieve No disponible.
UV 11 de una escala de 12
Polen 8.90 de una escala de 12
Calidad del aire No disponible.
Flu Activity No disponible.
METAR KGUP 301953Z AUTO 29012KT 10SM CLR 30/M01 A3019 RMK AO2 SLP062 T03001006

More Conditions Fewer Conditions

10-Day Weather Forecast

Almanac

Astronomía

Aug. 30, 2014 Salida Puesta
Hora real 6:45 AM MDT 7:44 PM MDT
Crepúsculo civil 6:19 AM MDT 8:10 PM MDT
Crepúsculo náutico 5:48 AM MDT 8:41 PM MDT
Crepúsculo astronómico 5:16 AM MDT 9:13 PM MDT
Luna 11:25 AM MDT 10:33 PM MDT
Horas de luz 13h 51m
Horas de luz
12h 59m
Tomorrow will be 2m 8s shorter.
Creciente, 24% of the Moon is Illuminated
Hoy
Creciente
Sep 2
Cuarto creciente
Sep 8
Luna llena
Sep 15
Cuarto menguante
Sep 24
Nueva

Extremos de hoy

Máximos del estado Bajos del estado

Community

WunderPhotos

Upload Photos

1,748,622 ¡fotos cargadas!

WunderBlogs® & News

Nearby

Grosos de nieve

Estación Profundido Altura
Quemazon 1 in 9500 ft
Silver Creek Divide 13 in 9000 ft
Santa Fe 1 in 11445 ft
Tolby 0 in 10180 ft

Actividad de terremotos

Ciudad Distance Mag. Tiempo y dato
No hay informes recientes de la actividad sísmica.
Magnitud mínima muestra es 2,5.

Temperaturas de aguas costeras

Lugar Temperatura
Sin partes meteorológicos de las estaciones

Estaciones meteorológicas cercanas